Time;durP1;ratioP1;P1;durP2;ratioP2;P2;SDS_P1;SDS_P2;PMS_P1;PMS_P2;Temp;Humidity;BMP_temperature;BMP_pressure;BME280_temperature;BME280_humidity;BME280_pressure;Samples;Min_cycle;Max_cycle;Signal;HPM_P1;HPM_P2
2022/07/07 00:00:56;;;;;;;2.58;1.02;;;;;;;;;;21179753;28;20484;-60
2022/07/07 00:10:58;;;;;;;2.28;0.90;;;;;;;;;;21179454;28;20086;-59
2022/07/07 00:21:00;;;;;;;2.25;1.10;;;;;;;;;;21179129;28;20043;-65
2022/07/07 00:31:02;;;;;;;2.38;1.00;;;;;;;;;;21176905;28;20054;-60
2022/07/07 00:41:04;;;;;;;5.35;1.38;;;;;;;;;;21173498;28;20044;-65
2022/07/07 00:51:09;;;;;;;5.82;1.35;;;;;;;;;;21174226;28;20056;-61
2022/07/07 01:01:11;;;;;;;2.38;1.20;;;;;;;;;;21172512;28;20411;-60
2022/07/07 01:11:13;;;;;;;2.70;0.93;;;;;;;;;;21171423;28;20043;-61
2022/07/07 01:21:19;;;;;;;3.30;1.10;;;;;;;;;;21171949;28;20071;-60
2022/07/07 01:31:23;;;;;;;2.88;1.40;;;;;;;;;;21170918;28;20054;-60
2022/07/07 01:41:27;;;;;;;4.30;1.60;;;;;;;;;;21169028;28;20047;-59
2022/07/07 01:51:31;;;;;;;2.53;1.13;;;;;;;;;;21168724;28;20052;-59
2022/07/07 02:01:36;;;;;;;2.53;1.20;;;;;;;;;;21173181;28;20083;-61
2022/07/07 02:11:40;;;;;;;4.15;1.20;;;;;;;;;;21198642;28;20510;-67
2022/07/07 02:21:43;;;;;;;3.45;1.50;;;;;;;;;;21225822;28;20044;-76
2022/07/07 02:31:47;;;;;;;4.10;1.48;;;;;;;;;;21166922;28;20403;-77
2022/07/07 02:41:53;;;;;;;3.55;1.25;;;;;;;;;;21166068;28;20050;-74
2022/07/07 02:51:58;;;;;;;2.47;1.20;;;;;;;;;;21164472;28;20488;-69
2022/07/07 03:02:00;;;;;;;2.50;1.10;;;;;;;;;;21164479;28;20127;-74
2022/07/07 03:12:04;;;;;;;3.47;1.40;;;;;;;;;;21163341;28;20202;-67
2022/07/07 03:22:08;;;;;;;3.95;1.42;;;;;;;;;;21163657;28;20127;-76
2022/07/07 03:32:11;;;;;;;4.05;1.30;;;;;;;;;;21163810;28;20403;-75
2022/07/07 03:42:14;;;;;;;3.88;1.50;;;;;;;;;;21162770;28;20453;-61
2022/07/07 03:52:17;;;;;;;3.13;1.10;;;;;;;;;;21162650;28;20058;-63
2022/07/07 04:02:19;;;;;;;4.38;1.50;;;;;;;;;;21160691;28;20048;-60
2022/07/07 04:12:22;;;;;;;3.25;1.30;;;;;;;;;;21160095;28;20154;-61
2022/07/07 04:22:24;;;;;;;3.95;1.65;;;;;;;;;;21169955;28;20494;-66
2022/07/07 04:32:26;;;;;;;4.35;1.73;;;;;;;;;;21174421;28;20059;-70
2022/07/07 04:42:30;;;;;;;5.00;1.50;;;;;;;;;;21174152;28;20514;-64
2022/07/07 04:52:32;;;;;;;3.83;1.35;;;;;;;;;;21175542;28;20055;-72
2022/07/07 05:02:34;;;;;;;4.15;1.33;;;;;;;;;;21172745;28;20128;-61
2022/07/07 05:12:37;;;;;;;3.25;1.58;;;;;;;;;;21170977;28;20054;-71
2022/07/07 05:22:40;;;;;;;3.97;1.35;;;;;;;;;;21171713;28;20039;-60
2022/07/07 05:32:42;;;;;;;2.40;1.52;;;;;;;;;;21170400;28;20528;-63
2022/07/07 05:42:45;;;;;;;4.15;1.70;;;;;;;;;;21169825;28;20044;-71
2022/07/07 05:52:47;;;;;;;3.10;1.58;;;;;;;;;;21168931;28;20043;-62
2022/07/07 06:02:50;;;;;;;1.88;1.20;;;;;;;;;;21167094;28;20054;-64
2022/07/07 06:12:53;;;;;;;4.22;1.38;;;;;;;;;;21167221;28;20079;-60
2022/07/07 06:22:55;;;;;;;2.53;1.55;;;;;;;;;;21166895;28;20071;-64
2022/07/07 06:32:58;;;;;;;4.60;1.50;;;;;;;;;;21165264;28;20481;-66
2022/07/07 06:43:00;;;;;;;2.65;1.38;;;;;;;;;;21164284;28;20497;-68
2022/07/07 06:53:02;;;;;;;2.50;1.25;;;;;;;;;;21162709;28;20056;-69
2022/07/07 07:03:04;;;;;;;4.50;1.38;;;;;;;;;;21159441;28;20071;-60
2022/07/07 07:13:06;;;;;;;2.13;1.35;;;;;;;;;;21157692;28;20441;-64
2022/07/07 07:23:08;;;;;;;6.65;1.30;;;;;;;;;;21158255;28;20509;-65
2022/07/07 07:33:11;;;;;;;4.90;1.30;;;;;;;;;;21160769;28;20043;-69
2022/07/07 07:43:13;;;;;;;3.13;1.17;;;;;;;;;;21159100;28;20040;-68
2022/07/07 07:53:15;;;;;;;5.03;1.17;;;;;;;;;;21163171;28;20582;-73
2022/07/07 08:03:17;;;;;;;5.55;1.27;;;;;;;;;;21177460;28;20135;-69
2022/07/07 08:13:19;;;;;;;7.82;1.30;;;;;;;;;;21157729;28;20487;-66
2022/07/07 08:23:21;;;;;;;2.83;1.05;;;;;;;;;;21174750;28;20101;-72
2022/07/07 08:33:23;;;;;;;2.80;1.20;;;;;;;;;;21173116;28;20044;-64
2022/07/07 08:43:26;;;;;;;6.07;1.20;;;;;;;;;;21174059;28;20048;-62
2022/07/07 08:53:31;;;;;;;4.15;0.85;;;;;;;;;;21172850;28;20114;-65
2022/07/07 09:03:34;;;;;;;2.05;1.25;;;;;;;;;;21170824;28;20048;-65
2022/07/07 09:13:36;;;;;;;1.73;1.05;;;;;;;;;;21170655;28;20048;-65
2022/07/07 09:23:51;;;;;;;1.33;0.95;;;;;;;;;;21169932;28;20116;-70
2022/07/07 09:34:11;;;;;;;2.50;1.00;;;;;;;;;;21169741;28;20372;-67
2022/07/07 09:44:13;;;;;;;5.85;1.00;;;;;;;;;;21168352;28;20047;-74
2022/07/07 09:54:16;;;;;;;2.72;1.13;;;;;;;;;;21169508;28;20149;-60
2022/07/07 10:04:19;;;;;;;11.30;1.85;;;;;;;;;;21171003;28;20411;-63
2022/07/07 10:14:21;;;;;;;2.38;0.90;;;;;;;;;;21167141;27;20052;-65
2022/07/07 10:24:27;;;;;;;1.13;0.70;;;;;;;;;;21182914;27;20044;-64
2022/07/07 10:34:33;;;;;;;1.20;0.60;;;;;;;;;;21168306;27;20048;-61
2022/07/07 10:44:37;;;;;;;0.60;0.40;;;;;;;;;;21164039;28;20044;-64
2022/07/07 10:54:40;;;;;;;1.92;0.57;;;;;;;;;;21163742;28;20530;-63
2022/07/07 11:04:48;;;;;;;1.88;0.70;;;;;;;;;;21190786;27;20141;-63
2022/07/07 11:15:10;;;;;;;1.58;0.43;;;;;;;;;;21177818;27;20410;-64
2022/07/07 11:25:14;;;;;;;1.92;0.40;;;;;;;;;;21195981;28;20124;-59
2022/07/07 11:35:16;;;;;;;2.17;0.35;;;;;;;;;;21179126;28;20058;-59
2022/07/07 11:45:20;;;;;;;1.05;0.60;;;;;;;;;;21182293;28;20043;-61
2022/07/07 11:55:23;;;;;;;1.58;0.60;;;;;;;;;;21181190;28;20047;-58
2022/07/07 12:05:26;;;;;;;0.60;0.43;;;;;;;;;;21181915;28;20054;-59
2022/07/07 12:15:29;;;;;;;1.88;0.50;;;;;;;;;;21178560;28;20055;-60
2022/07/07 12:25:33;;;;;;;1.77;0.40;;;;;;;;;;21177226;28;20651;-67
2022/07/07 12:35:37;;;;;;;0.90;0.60;;;;;;;;;;21157022;28;20047;-59
2022/07/07 12:45:42;;;;;;;3.50;0.47;;;;;;;;;;21156154;28;20150;-71
2022/07/07 12:55:45;;;;;;;4.68;0.70;;;;;;;;;;21174127;28;20134;-59
2022/07/07 13:05:48;;;;;;;1.65;0.50;;;;;;;;;;21172603;28;20130;-59
2022/07/07 13:15:50;;;;;;;1.05;0.60;;;;;;;;;;21172013;28;20166;-58
2022/07/07 13:25:52;;;;;;;1.90;0.68;;;;;;;;;;21170871;28;20047;-70
2022/07/07 13:35:56;;;;;;;1.50;0.80;;;;;;;;;;21172235;28;20526;-66
2022/07/07 13:45:59;;;;;;;2.92;1.20;;;;;;;;;;21169872;28;20460;-71
2022/07/07 13:56:01;;;;;;;2.80;1.33;;;;;;;;;;21150275;28;20054;-59
2022/07/07 14:06:04;;;;;;;2.95;1.95;;;;;;;;;;21170623;28;20457;-61
2022/07/07 14:16:06;;;;;;;4.82;2.17;;;;;;;;;;21168605;28;20051;-73
2022/07/07 14:26:08;;;;;;;3.65;1.50;;;;;;;;;;21166375;28;20039;-73
2022/07/07 14:36:10;;;;;;;5.10;2.10;;;;;;;;;;21164981;28;20112;-72
2022/07/07 14:46:12;;;;;;;3.58;2.00;;;;;;;;;;21164438;28;20096;-73
2022/07/07 14:56:14;;;;;;;4.00;1.90;;;;;;;;;;21163557;28;20051;-71
2022/07/07 15:06:16;;;;;;;2.40;1.40;;;;;;;;;;21162700;28;20194;-72
2022/07/07 15:16:18;;;;;;;2.08;1.55;;;;;;;;;;21162507;28;20093;-58
2022/07/07 15:26:22;;;;;;;2.30;1.55;;;;;;;;;;21163640;28;20044;-59
2022/07/07 15:36:24;;;;;;;2.95;1.10;;;;;;;;;;21162535;28;20052;-57
2022/07/07 15:46:26;;;;;;;2.25;1.20;;;;;;;;;;21161896;28;20066;-62
2022/07/07 15:56:30;;;;;;;1.30;1.08;;;;;;;;;;21160980;28;20078;-59
2022/07/07 16:06:32;;;;;;;2.00;0.75;;;;;;;;;;21160392;28;20098;-67
2022/07/07 16:16:34;;;;;;;0.80;0.55;;;;;;;;;;21167215;28;20057;-67
2022/07/07 16:26:36;;;;;;;0.98;0.60;;;;;;;;;;21175229;28;20047;-67
2022/07/07 16:36:40;;;;;;;0.95;0.65;;;;;;;;;;21175271;28;20051;-66
2022/07/07 16:46:42;;;;;;;1.17;0.80;;;;;;;;;;21174880;28;20093;-65
2022/07/07 16:56:44;;;;;;;0.73;0.52;;;;;;;;;;21172102;28;20094;-63
2022/07/07 17:06:46;;;;;;;0.47;0.45;;;;;;;;;;21171328;28;20064;-60
2022/07/07 17:16:48;;;;;;;1.90;0.77;;;;;;;;;;21171231;28;20051;-59
2022/07/07 17:26:50;;;;;;;2.15;0.70;;;;;;;;;;21171461;28;20043;-57
2022/07/07 17:36:53;;;;;;;3.05;1.05;;;;;;;;;;21169432;28;20055;-58
2022/07/07 17:46:54;;;;;;;1.85;0.57;;;;;;;;;;21168635;28;20141;-57
2022/07/07 17:56:56;;;;;;;2.20;0.47;;;;;;;;;;21167056;28;20048;-68
2022/07/07 18:06:58;;;;;;;0.98;0.60;;;;;;;;;;21167133;28;20127;-66
2022/07/07 18:17:00;;;;;;;5.38;1.00;;;;;;;;;;21168010;28;20135;-62
2022/07/07 18:27:03;;;;;;;0.95;0.60;;;;;;;;;;21166499;28;20047;-63
2022/07/07 18:37:05;;;;;;;2.90;2.22;;;;;;;;;;21164757;28;20052;-63
2022/07/07 18:47:08;;;;;;;2.55;1.10;;;;;;;;;;21166010;28;20115;-62
2022/07/07 18:57:10;;;;;;;3.95;1.50;;;;;;;;;;21164878;28;20526;-62
2022/07/07 19:07:12;;;;;;;2.97;0.63;;;;;;;;;;21165049;28;20278;-62
2022/07/07 19:17:14;;;;;;;1.27;1.00;;;;;;;;;;21163715;28;20051;-61
2022/07/07 19:27:16;;;;;;;1.30;0.77;;;;;;;;;;21163448;28;20444;-61
2022/07/07 19:37:18;;;;;;;3.03;0.90;;;;;;;;;;21162353;28;20055;-62
2022/07/07 19:47:20;;;;;;;2.90;1.08;;;;;;;;;;21163699;28;20044;-61
2022/07/07 19:57:22;;;;;;;2.40;0.70;;;;;;;;;;21177879;28;20140;-62
2022/07/07 20:07:24;;;;;;;1.65;1.00;;;;;;;;;;21179852;28;20055;-62
2022/07/07 20:17:26;;;;;;;2.33;0.73;;;;;;;;;;21176833;28;20095;-62
2022/07/07 20:27:29;;;;;;;2.78;0.90;;;;;;;;;;21177952;28;20413;-62
2022/07/07 20:37:31;;;;;;;2.00;0.63;;;;;;;;;;21176807;28;20048;-62
2022/07/07 20:47:35;;;;;;;6.38;1.17;;;;;;;;;;21175178;28;20139;-61
2022/07/07 20:57:37;;;;;;;1.83;0.90;;;;;;;;;;21154349;28;20457;-61
2022/07/07 21:07:39;;;;;;;3.25;1.08;;;;;;;;;;21171567;28;20058;-62
2022/07/07 21:17:42;;;;;;;1.77;0.77;;;;;;;;;;21174009;28;20468;-63
2022/07/07 21:27:44;;;;;;;1.92;1.15;;;;;;;;;;21172254;28;20043;-62
2022/07/07 21:37:46;;;;;;;2.80;0.90;;;;;;;;;;21153679;28;20488;-62
2022/07/07 21:47:49;;;;;;;3.15;1.33;;;;;;;;;;21169795;28;20048;-62
2022/07/07 21:57:51;;;;;;;4.45;1.25;;;;;;;;;;21170696;28;20047;-65
2022/07/07 22:07:54;;;;;;;4.55;1.00;;;;;;;;;;21168683;28;20056;-62
2022/07/07 22:17:56;;;;;;;4.05;1.10;;;;;;;;;;21167447;28;20479;-61
2022/07/07 22:27:58;;;;;;;23.60;1.67;;;;;;;;;;21167704;28;20130;-61
2022/07/07 22:38:01;;;;;;;3.00;0.90;;;;;;;;;;21166356;28;20430;-62
2022/07/07 22:48:04;;;;;;;3.53;0.98;;;;;;;;;;21164920;28;20047;-62
2022/07/07 22:58:06;;;;;;;5.82;0.80;;;;;;;;;;21164618;28;20100;-61
2022/07/07 23:08:08;;;;;;;1.90;0.90;;;;;;;;;;21163406;28;20058;-62
2022/07/07 23:18:10;;;;;;;2.63;0.90;;;;;;;;;;21163393;28;20048;-62
2022/07/07 23:28:12;;;;;;;4.28;0.80;;;;;;;;;;21162737;28;20047;-62
2022/07/07 23:38:14;;;;;;;2.35;0.80;;;;;;;;;;21162822;28;20134;-61
2022/07/07 23:48:17;;;;;;;3.10;0.80;;;;;;;;;;21161972;28;20054;-61
2022/07/07 23:58:18;;;;;;;2.53;0.73;;;;;;;;;;21161843;28;20043;-61
